createdAt,value
2023-03-29T00:00:49.607Z,100445.25
2023-03-29T00:01:52.466Z,100449.22
2023-03-29T00:02:56.523Z,100445.38
2023-03-29T00:04:02.437Z,100450.78
2023-03-29T00:05:05.215Z,100452.34
2023-03-29T00:06:07.202Z,100445.19
2023-03-29T00:07:09.385Z,100450.59
2023-03-29T00:08:14.471Z,100450.44
2023-03-29T00:09:18.313Z,100453.06
2023-03-29T00:10:25.080Z,100452.16
2023-03-29T00:11:27.425Z,100454.19
2023-03-29T00:12:29.577Z,100458.16
2023-03-29T00:13:31.393Z,100455.06
2023-03-29T00:14:33.260Z,100451.69
2023-03-29T00:15:35.640Z,100462.50
2023-03-29T00:16:37.782Z,100459.00
2023-03-29T00:17:40.131Z,100461.56
2023-03-29T00:18:42.026Z,100468.75
2023-03-29T00:19:45.294Z,100464.00
2023-03-29T00:20:53.823Z,100458.47
2023-03-29T00:21:55.716Z,100469.34
2023-03-29T00:22:57.910Z,100466.88
2023-03-29T00:23:59.766Z,100470.81
2023-03-29T00:25:01.643Z,100476.25
2023-03-29T00:26:05.869Z,100481.81
2023-03-29T00:27:09.122Z,100474.87
2023-03-29T00:28:11.254Z,100475.56
2023-03-29T00:29:13.117Z,100482.59
2023-03-29T00:30:15.924Z,100482.34
2023-03-29T00:31:18.620Z,100477.22
2023-03-29T00:32:20.650Z,100481.78
2023-03-29T00:33:22.863Z,100481.78
2023-03-29T00:34:30.701Z,100480.28
2023-03-29T00:35:33.173Z,100482.00
2023-03-29T00:36:35.042Z,100481.22
2023-03-29T00:37:38.011Z,100481.50
2023-03-29T00:38:40.505Z,100482.81
2023-03-29T00:39:42.660Z,100485.53
2023-03-29T00:40:47.080Z,100482.00
2023-03-29T00:41:50.315Z,100483.12
2023-03-29T00:42:52.272Z,100476.78
2023-03-29T00:44:03.096Z,100481.53
2023-03-29T00:45:07.067Z,100485.06
2023-03-29T00:46:09.257Z,100482.09
2023-03-29T00:47:11.474Z,100479.22
2023-03-29T00:48:22.048Z,100484.78
2023-03-29T00:49:24.316Z,100472.28
2023-03-29T00:50:38.043Z,100483.41
2023-03-29T00:51:41.461Z,100481.37
2023-03-29T00:52:48.870Z,100474.22
2023-03-29T00:53:55.616Z,100471.75
2023-03-29T00:55:01.532Z,100472.31
2023-03-29T00:56:07.431Z,100470.69
2023-03-29T00:57:12.002Z,100466.34
2023-03-29T00:58:17.933Z,100472.00
2023-03-29T00:59:25.311Z,100469.19
2023-03-29T01:00:34.966Z,100465.59
2023-03-29T01:01:44.968Z,100470.06
2023-03-29T01:02:54.250Z,100465.66
2023-03-29T01:04:08.937Z,100467.66
2023-03-29T01:05:17.507Z,100469.47
2023-03-29T01:06:24.843Z,100462.16
2023-03-29T01:07:35.386Z,100464.28
2023-03-29T01:08:54.643Z,100457.56
2023-03-29T01:10:09.253Z,100461.44
2023-03-29T01:11:14.852Z,100453.13
2023-03-29T01:12:22.317Z,100465.38
2023-03-29T01:13:55.234Z,100458.00
2023-03-29T01:15:06.981Z,100454.72
2023-03-29T01:16:11.641Z,100452.16
2023-03-29T01:17:13.499Z,100451.66
2023-03-29T01:18:15.684Z,100450.53
2023-03-29T01:19:22.203Z,100451.44
2023-03-29T01:20:43.518Z,100443.78
2023-03-29T01:21:52.912Z,100451.03
2023-03-29T01:23:10.046Z,100446.47
2023-03-29T01:24:27.565Z,100451.88
2023-03-29T01:25:48.168Z,100449.25
2023-03-29T01:27:03.242Z,100447.09
2023-03-29T01:28:31.324Z,100455.16
2023-03-29T01:29:57.295Z,100447.72
2023-03-29T01:31:32.560Z,100446.63
2023-03-29T01:32:42.350Z,100453.19
2023-03-29T01:33:49.384Z,100447.00
2023-03-29T01:35:10.370Z,100451.09
2023-03-29T01:36:29.470Z,100447.09
2023-03-29T01:37:39.409Z,100442.75
2023-03-29T01:38:46.475Z,100451.84
2023-03-29T01:39:48.423Z,100447.47
2023-03-29T01:40:50.820Z,100446.81
2023-03-29T01:42:01.693Z,100446.63
2023-03-29T01:43:27.856Z,100440.25
2023-03-29T01:44:34.053Z,100444.22
2023-03-29T01:46:04.169Z,100437.94
2023-03-29T01:47:19.607Z,100445.66
2023-03-29T01:48:45.680Z,100443.34
2023-03-29T01:50:09.427Z,100454.66
2023-03-29T01:51:25.129Z,100445.78
2023-03-29T01:52:38.261Z,100452.50
2023-03-29T01:53:47.074Z,100448.28
2023-03-29T01:55:12.353Z,100449.84
2023-03-29T01:56:21.747Z,100452.69
2023-03-29T01:57:26.379Z,100447.28
2023-03-29T01:58:34.041Z,100452.16
2023-03-29T01:59:41.292Z,100452.47
2023-03-29T02:00:43.919Z,100458.63
2023-03-29T02:01:51.725Z,100453.44
2023-03-29T02:02:59.253Z,100454.94
2023-03-29T02:04:04.614Z,100458.88
2023-03-29T02:05:09.986Z,100467.34
2023-03-29T02:06:15.573Z,100460.81
2023-03-29T02:07:21.139Z,100463.63
2023-03-29T02:08:24.056Z,100461.69
2023-03-29T02:09:27.087Z,100467.44
2023-03-29T02:10:30.245Z,100466.91
2023-03-29T02:11:33.790Z,100465.72
2023-03-29T02:12:38.160Z,100471.59
2023-03-29T02:13:40.267Z,100468.84
2023-03-29T02:14:42.728Z,100462.19
2023-03-29T02:15:46.148Z,100463.09
2023-03-29T02:16:49.660Z,100463.34
2023-03-29T02:17:51.737Z,100465.22
2023-03-29T02:18:56.514Z,100466.31
2023-03-29T02:20:14.283Z,100463.34
2023-03-29T02:21:24.064Z,100454.50
2023-03-29T02:22:37.482Z,100458.72
2023-03-29T02:23:45.820Z,100460.34
2023-03-29T02:24:50.120Z,100457.97
2023-03-29T02:25:56.967Z,100458.31
2023-03-29T02:27:01.302Z,100455.66
2023-03-29T02:28:05.814Z,100461.94
2023-03-29T02:29:08.417Z,100460.37
2023-03-29T02:30:12.776Z,100456.28
2023-03-29T02:31:35.146Z,100456.97
2023-03-29T02:32:45.574Z,100457.56
2023-03-29T02:34:02.470Z,100457.56
2023-03-29T02:35:18.150Z,100458.44
2023-03-29T02:36:41.723Z,100457.72
2023-03-29T02:37:46.357Z,100455.59
2023-03-29T02:38:48.651Z,100455.59
2023-03-29T02:39:52.474Z,100465.53
2023-03-29T02:40:56.674Z,100465.94
2023-03-29T02:41:59.733Z,100469.66
2023-03-29T02:43:03.204Z,100474.16
2023-03-29T02:44:08.219Z,100472.41
2023-03-29T02:45:14.336Z,100473.63
2023-03-29T02:46:18.636Z,100480.97
2023-03-29T02:47:30.150Z,100475.03
2023-03-29T02:48:34.578Z,100474.69
2023-03-29T02:49:36.844Z,100471.06
2023-03-29T02:50:41.758Z,100474.72
2023-03-29T02:51:47.429Z,100477.16
2023-03-29T02:52:59.256Z,100473.97
2023-03-29T02:54:11.193Z,100470.00
2023-03-29T02:55:17.317Z,100480.75
2023-03-29T02:56:22.069Z,100483.09
2023-03-29T02:57:26.661Z,100480.47
2023-03-29T02:58:29.558Z,100473.16
2023-03-29T02:59:32.176Z,100475.44
2023-03-29T03:00:43.106Z,100474.69
2023-03-29T03:01:45.792Z,100478.66
2023-03-29T03:02:48.725Z,100476.91
2023-03-29T03:03:51.927Z,100476.00
2023-03-29T03:04:55.495Z,100480.97
2023-03-29T03:05:58.007Z,100478.78
2023-03-29T03:06:59.907Z,100487.59
2023-03-29T03:08:02.666Z,100483.19
2023-03-29T03:09:05.979Z,100485.19
2023-03-29T03:10:10.176Z,100481.06
2023-03-29T03:11:12.451Z,100485.03
2023-03-29T03:12:14.617Z,100487.34
2023-03-29T03:13:16.477Z,100491.16
2023-03-29T03:14:19.222Z,100492.50
2023-03-29T03:15:21.084Z,100487.06
2023-03-29T03:16:23.946Z,100491.72
2023-03-29T03:17:25.935Z,100490.44
2023-03-29T03:18:27.862Z,100490.03
2023-03-29T03:19:29.744Z,100489.53
2023-03-29T03:20:31.591Z,100483.00
2023-03-29T03:21:35.235Z,100481.63
2023-03-29T03:22:37.210Z,100478.25
2023-03-29T03:23:39.123Z,100481.75
2023-03-29T03:24:43.026Z,100482.56
2023-03-29T03:25:46.108Z,100484.87
2023-03-29T03:26:50.040Z,100482.69
2023-03-29T03:27:53.633Z,100483.03
2023-03-29T03:28:56.531Z,100485.72
2023-03-29T03:30:02.033Z,100483.00
2023-03-29T03:31:07.140Z,100485.00
2023-03-29T03:32:12.412Z,100484.41
2023-03-29T03:33:16.987Z,100487.69
2023-03-29T03:34:21.054Z,100487.19
2023-03-29T03:35:23.707Z,100493.03
2023-03-29T03:36:26.144Z,100488.84
2023-03-29T03:37:31.893Z,100488.16
2023-03-29T03:38:34.088Z,100486.53
2023-03-29T03:39:36.769Z,100483.12
2023-03-29T03:40:39.044Z,100485.81
2023-03-29T03:41:41.105Z,100481.37
2023-03-29T03:42:43.432Z,100482.66
2023-03-29T03:43:48.959Z,100489.06
2023-03-29T03:44:51.758Z,100482.09
2023-03-29T03:45:55.730Z,100483.16
2023-03-29T03:46:57.834Z,100493.53
2023-03-29T03:48:00.166Z,100490.72
2023-03-29T03:49:02.973Z,100489.31
2023-03-29T03:50:06.181Z,100490.50
2023-03-29T03:51:08.069Z,100491.91
2023-03-29T03:52:10.198Z,100491.88
2023-03-29T03:53:12.428Z,100492.13
2023-03-29T03:54:20.594Z,100493.88
2023-03-29T03:55:26.464Z,100496.19
2023-03-29T03:56:31.023Z,100491.53
2023-03-29T03:57:37.473Z,100498.88
2023-03-29T03:58:40.080Z,100496.31
2023-03-29T03:59:42.786Z,100493.75
2023-03-29T04:00:51.571Z,100489.44
2023-03-29T04:01:54.861Z,100497.03
2023-03-29T04:02:57.067Z,100498.88
2023-03-29T04:03:59.412Z,100499.34
2023-03-29T04:05:03.487Z,100496.06
2023-03-29T04:06:05.797Z,100496.53
2023-03-29T04:07:13.099Z,100503.75
2023-03-29T04:08:15.381Z,100490.81
2023-03-29T04:09:20.414Z,100493.41
2023-03-29T04:10:23.359Z,100497.87
2023-03-29T04:11:25.980Z,100495.81
2023-03-29T04:12:28.308Z,100493.47
2023-03-29T04:13:30.267Z,100498.50
2023-03-29T04:14:35.686Z,100500.50
2023-03-29T04:15:39.213Z,100497.31
2023-03-29T04:16:41.530Z,100501.63
2023-03-29T04:17:47.773Z,100498.47
2023-03-29T04:18:52.351Z,100496.44
2023-03-29T04:19:54.329Z,100494.53
2023-03-29T04:20:56.183Z,100493.94
2023-03-29T04:21:58.599Z,100494.41
2023-03-29T04:23:01.107Z,100504.28
2023-03-29T04:24:03.576Z,100503.22
2023-03-29T04:25:08.208Z,100500.63
2023-03-29T04:26:15.926Z,100501.16
2023-03-29T04:27:18.041Z,100507.38
2023-03-29T04:28:20.390Z,100504.34
2023-03-29T04:29:23.176Z,100507.13
2023-03-29T04:30:25.826Z,100504.09
2023-03-29T04:31:32.336Z,100505.41
2023-03-29T04:32:35.197Z,100499.44
2023-03-29T04:33:38.705Z,100502.47
2023-03-29T04:34:40.602Z,100501.31
2023-03-29T04:35:42.582Z,100502.34
2023-03-29T04:36:45.280Z,100504.91
2023-03-29T04:37:48.342Z,100507.00
2023-03-29T04:38:52.371Z,100503.06
2023-03-29T04:39:54.652Z,100504.69
2023-03-29T04:41:01.284Z,100504.22
2023-03-29T04:42:06.012Z,100505.75
2023-03-29T04:43:08.126Z,100504.69
2023-03-29T04:44:12.363Z,100508.19
2023-03-29T04:45:18.107Z,100503.53
2023-03-29T04:46:26.432Z,100496.94
2023-03-29T04:47:30.153Z,100499.53
2023-03-29T04:48:32.462Z,100497.78
2023-03-29T04:49:34.678Z,100503.50
2023-03-29T04:50:37.694Z,100497.53
2023-03-29T04:51:39.835Z,100500.69
2023-03-29T04:52:42.118Z,100500.44
2023-03-29T04:53:43.994Z,100495.66
2023-03-29T04:54:46.677Z,100496.59
2023-03-29T04:55:49.673Z,100505.00
2023-03-29T04:56:52.624Z,100499.78
2023-03-29T04:57:55.834Z,100501.16
2023-03-29T05:00:00.763Z,100493.72
2023-03-29T05:01:06.932Z,100494.59
2023-03-29T05:02:09.821Z,100492.13
2023-03-29T05:03:15.155Z,100498.78
2023-03-29T05:04:18.441Z,100501.78
2023-03-29T05:05:23.981Z,100500.72
2023-03-29T05:06:26.452Z,100498.37
2023-03-29T05:07:28.377Z,100501.19
2023-03-29T05:08:30.329Z,100504.47
2023-03-29T05:09:35.465Z,100502.84
2023-03-29T05:10:42.987Z,100503.25
2023-03-29T05:11:45.215Z,100502.97
2023-03-29T05:12:50.605Z,100503.78
2023-03-29T05:13:52.509Z,100503.62
2023-03-29T05:14:54.571Z,100505.34
2023-03-29T05:15:57.292Z,100500.91
2023-03-29T05:16:59.534Z,100500.19
2023-03-29T05:18:01.560Z,100505.94
2023-03-29T05:19:04.087Z,100499.03
2023-03-29T05:20:09.700Z,100502.19
2023-03-29T05:21:12.058Z,100504.13
2023-03-29T05:22:16.668Z,100502.25
2023-03-29T05:23:19.093Z,100510.00
2023-03-29T05:24:25.155Z,100512.28
2023-03-29T05:25:27.648Z,100507.28
2023-03-29T05:26:29.885Z,100512.69
2023-03-29T05:27:33.536Z,100507.22
2023-03-29T05:28:35.760Z,100506.31
2023-03-29T05:29:37.995Z,100507.84
2023-03-29T05:30:41.383Z,100507.47
2023-03-29T05:31:44.656Z,100503.06
2023-03-29T05:32:46.998Z,100508.97
2023-03-29T05:33:52.716Z,100513.19
2023-03-29T05:34:54.806Z,100514.97
2023-03-29T05:36:08.319Z,100510.34
2023-03-29T05:37:13.417Z,100520.69
2023-03-29T05:38:17.041Z,100515.97
2023-03-29T05:39:19.040Z,100519.31
2023-03-29T05:40:21.112Z,100518.63
2023-03-29T05:41:25.770Z,100511.69
2023-03-29T05:42:30.152Z,100514.38
2023-03-29T05:43:32.900Z,100515.75
2023-03-29T05:44:35.067Z,100515.25
2023-03-29T05:45:39.061Z,100510.81
2023-03-29T05:46:41.116Z,100514.69
2023-03-29T05:47:48.019Z,100517.41
2023-03-29T05:48:50.052Z,100508.56
2023-03-29T05:49:54.038Z,100517.34
2023-03-29T05:50:57.834Z,100514.87
2023-03-29T05:52:00.415Z,100519.59
2023-03-29T05:53:03.802Z,100516.56
2023-03-29T05:54:05.870Z,100524.25
2023-03-29T05:55:10.428Z,100521.00
2023-03-29T05:56:16.052Z,100515.19
2023-03-29T05:57:18.267Z,100520.16
2023-03-29T05:58:21.734Z,100522.63
2023-03-29T05:59:24.424Z,100528.41
2023-03-29T06:00:26.805Z,100524.38
2023-03-29T06:01:30.931Z,100527.44
2023-03-29T06:02:33.696Z,100523.00
2023-03-29T06:03:36.957Z,100525.16
2023-03-29T06:04:39.991Z,100525.88
2023-03-29T06:05:50.149Z,100527.63
2023-03-29T06:06:53.222Z,100523.84
2023-03-29T06:07:56.741Z,100526.44
2023-03-29T06:09:01.347Z,100519.63
2023-03-29T06:10:09.642Z,100528.16
2023-03-29T06:11:13.448Z,100528.56
2023-03-29T06:12:21.856Z,100529.66
2023-03-29T06:13:24.204Z,100522.88
2023-03-29T06:14:27.239Z,100526.28
2023-03-29T06:15:29.877Z,100528.69
2023-03-29T06:16:32.618Z,100530.06
2023-03-29T06:17:34.876Z,100526.41
2023-03-29T06:18:40.329Z,100534.28
2023-03-29T06:19:42.545Z,100531.44
2023-03-29T06:20:49.316Z,100531.16
2023-03-29T06:21:53.793Z,100530.72
2023-03-29T06:22:58.422Z,100527.84
2023-03-29T06:24:00.317Z,100529.47
2023-03-29T06:25:02.627Z,100526.66
2023-03-29T06:26:05.930Z,100525.37
2023-03-29T06:27:08.141Z,100527.28
2023-03-29T06:28:11.946Z,100530.22
2023-03-29T06:29:14.827Z,100535.87
2023-03-29T06:30:20.976Z,100533.16
2023-03-29T06:31:23.281Z,100530.56
2023-03-29T06:32:26.032Z,100543.13
2023-03-29T06:33:30.642Z,100541.09
2023-03-29T06:34:38.074Z,100538.22
2023-03-29T06:35:44.301Z,100545.44
2023-03-29T06:36:51.198Z,100547.62
2023-03-29T06:37:56.019Z,100541.75
2023-03-29T06:39:00.102Z,100547.41
2023-03-29T06:40:07.260Z,100545.34
2023-03-29T06:41:13.143Z,100546.53
2023-03-29T06:42:21.044Z,100548.19
2023-03-29T06:43:24.652Z,100545.06
2023-03-29T06:44:28.423Z,100549.00
2023-03-29T06:45:33.711Z,100548.81
2023-03-29T06:46:37.524Z,100545.34
2023-03-29T06:47:41.159Z,100547.22
2023-03-29T06:48:43.178Z,100546.44
2023-03-29T06:49:45.533Z,100543.44
2023-03-29T06:50:49.650Z,100549.00
2023-03-29T06:51:53.875Z,100557.09
2023-03-29T06:52:56.664Z,100553.25
2023-03-29T06:53:58.617Z,100553.69
2023-03-29T06:55:01.905Z,100560.78
2023-03-29T06:56:09.121Z,100556.50
2023-03-29T06:57:13.325Z,100556.91
2023-03-29T06:58:16.466Z,100552.81
2023-03-29T06:59:18.859Z,100553.25
2023-03-29T07:00:28.399Z,100562.91
2023-03-29T07:01:34.647Z,100551.22
2023-03-29T07:02:37.926Z,100557.50
2023-03-29T07:03:46.762Z,100563.91
2023-03-29T07:04:49.430Z,100553.28
2023-03-29T07:05:53.030Z,100550.22
2023-03-29T07:07:01.816Z,100552.66
2023-03-29T07:08:07.314Z,100553.44
2023-03-29T07:09:12.921Z,100554.91
2023-03-29T07:10:16.591Z,100551.31
2023-03-29T07:11:21.233Z,100556.94
2023-03-29T07:12:23.701Z,100554.00
2023-03-29T07:13:26.315Z,100563.06
2023-03-29T07:14:31.518Z,100561.81
2023-03-29T07:15:33.540Z,100564.06
2023-03-29T07:16:37.669Z,100557.56
2023-03-29T07:17:39.854Z,100560.44
2023-03-29T07:18:43.883Z,100562.84
2023-03-29T07:19:48.905Z,100560.47
2023-03-29T07:20:52.208Z,100563.22
2023-03-29T07:21:54.500Z,100565.34
2023-03-29T07:22:57.388Z,100560.91
2023-03-29T07:23:59.579Z,100564.56
2023-03-29T07:25:01.511Z,100561.31
2023-03-29T07:26:07.616Z,100563.91
2023-03-29T07:27:09.903Z,100564.84
2023-03-29T07:28:11.850Z,100562.94
2023-03-29T07:29:14.191Z,100567.62
2023-03-29T07:30:23.146Z,100567.66
2023-03-29T07:31:25.637Z,100571.03
2023-03-29T07:32:31.360Z,100566.81
2023-03-29T07:33:35.228Z,100569.09
2023-03-29T07:34:38.330Z,100573.28
2023-03-29T07:35:43.455Z,100570.06
2023-03-29T07:36:45.410Z,100574.44
2023-03-29T07:37:47.925Z,100576.72
2023-03-29T07:38:50.168Z,100584.00
2023-03-29T07:39:53.473Z,100573.16
2023-03-29T07:40:59.042Z,100573.78
2023-03-29T07:42:02.437Z,100576.06
2023-03-29T07:43:08.953Z,100586.25
2023-03-29T07:44:11.425Z,100582.72
2023-03-29T07:45:16.394Z,100578.47
2023-03-29T07:46:20.338Z,100584.00
2023-03-29T07:47:23.585Z,100582.69
2023-03-29T07:48:25.876Z,100586.28
2023-03-29T07:49:29.093Z,100584.00
2023-03-29T07:50:32.612Z,100588.88
2023-03-29T07:51:37.413Z,100588.84
2023-03-29T07:52:40.845Z,100591.31
2023-03-29T07:53:43.125Z,100589.87
2023-03-29T07:54:46.398Z,100591.31
2023-03-29T07:55:52.580Z,100595.53
2023-03-29T07:56:58.863Z,100594.84
2023-03-29T07:58:04.353Z,100578.94
2023-03-29T07:59:08.380Z,100584.84
2023-03-29T08:00:17.081Z,100582.13
2023-03-29T08:01:21.756Z,100576.34
2023-03-29T08:02:27.372Z,100573.88
2023-03-29T08:03:30.863Z,100579.87
2023-03-29T08:04:42.860Z,100573.56
2023-03-29T08:05:47.733Z,100579.44
2023-03-29T08:06:50.605Z,100578.16
2023-03-29T08:07:52.768Z,100576.63
2023-03-29T08:08:55.176Z,100576.22
2023-03-29T08:09:57.417Z,100580.78
2023-03-29T08:11:00.294Z,100573.81
2023-03-29T08:12:02.933Z,100576.09
2023-03-29T08:13:08.452Z,100575.59
2023-03-29T08:14:11.466Z,100573.75
2023-03-29T08:15:15.281Z,100575.41
2023-03-29T08:16:18.234Z,100574.16
2023-03-29T08:17:21.314Z,100574.69
2023-03-29T08:18:23.471Z,100576.50
2023-03-29T08:19:25.756Z,100575.72
2023-03-29T08:20:28.100Z,100577.62
2023-03-29T08:21:30.482Z,100575.56
2023-03-29T08:22:34.422Z,100572.94
2023-03-29T08:23:37.478Z,100566.34
2023-03-29T08:24:39.690Z,100566.13
2023-03-29T08:25:42.411Z,100562.81
2023-03-29T08:26:44.593Z,100571.44
2023-03-29T08:27:48.676Z,100563.19
2023-03-29T08:28:53.035Z,100567.16
2023-03-29T08:29:55.213Z,100558.63
2023-03-29T08:30:57.271Z,100555.47
2023-03-29T08:31:59.570Z,100558.87
2023-03-29T08:33:02.235Z,100556.00
2023-03-29T08:34:04.714Z,100554.97
2023-03-29T08:35:09.657Z,100563.44
2023-03-29T08:36:12.486Z,100562.84
2023-03-29T08:37:14.984Z,100558.81
2023-03-29T08:38:17.476Z,100556.34
2023-03-29T08:39:19.825Z,100560.41
2023-03-29T08:40:27.253Z,100558.16
2023-03-29T08:41:49.499Z,100562.06
2023-03-29T08:43:16.625Z,100561.12
2023-03-29T08:44:26.619Z,100551.06
2023-03-29T08:45:51.014Z,100552.41
2023-03-29T08:47:37.814Z,100551.97
2023-03-29T08:48:52.202Z,100550.34
2023-03-29T08:49:57.435Z,100547.59
2023-03-29T08:51:32.445Z,100549.59
2023-03-29T08:52:41.411Z,100550.47
2023-03-29T08:53:52.457Z,100551.88
2023-03-29T08:54:57.339Z,100545.47
2023-03-29T08:56:12.267Z,100555.47
2023-03-29T08:57:28.210Z,100550.06
2023-03-29T08:58:33.556Z,100545.47
2023-03-29T08:59:35.920Z,100551.09
2023-03-29T09:00:47.189Z,100546.56
2023-03-29T09:01:53.185Z,100550.03
2023-03-29T09:02:57.536Z,100546.66
2023-03-29T09:04:11.740Z,100541.41
2023-03-29T09:05:40.181Z,100538.00
2023-03-29T09:06:43.425Z,100541.69
2023-03-29T09:07:46.135Z,100535.50
2023-03-29T09:08:51.013Z,100536.00
2023-03-29T09:09:54.401Z,100539.81
2023-03-29T09:11:18.436Z,100543.34
2023-03-29T09:12:41.173Z,100537.94
2023-03-29T09:13:46.026Z,100532.75
2023-03-29T09:14:47.998Z,100527.25
2023-03-29T09:16:19.632Z,100531.09
2023-03-29T09:17:24.406Z,100530.41
2023-03-29T09:18:38.291Z,100525.13
2023-03-29T09:19:53.071Z,100522.50
2023-03-29T09:21:13.044Z,100520.22
2023-03-29T09:22:23.331Z,100519.44
2023-03-29T09:23:31.930Z,100520.81
2023-03-29T09:25:11.076Z,100530.28
2023-03-29T09:26:36.980Z,100515.44
2023-03-29T09:27:42.306Z,100523.66
2023-03-29T09:28:45.794Z,100522.25
2023-03-29T09:30:04.733Z,100524.44
2023-03-29T09:31:31.002Z,100521.81
2023-03-29T09:33:06.574Z,100521.75
2023-03-29T09:34:18.579Z,100527.25
2023-03-29T09:35:47.827Z,100520.84
2023-03-29T09:36:54.397Z,100519.06
2023-03-29T09:37:57.119Z,100522.59
2023-03-29T09:38:59.693Z,100519.31
2023-03-29T09:40:11.099Z,100519.19
2023-03-29T09:41:16.660Z,100519.31
2023-03-29T09:42:20.345Z,100517.91
2023-03-29T09:43:37.890Z,100516.94
2023-03-29T09:44:52.693Z,100509.03
2023-03-29T09:46:00.705Z,100508.28
2023-03-29T09:47:19.854Z,100502.84
2023-03-29T09:48:23.102Z,100508.56
2023-03-29T09:49:31.372Z,100501.34
2023-03-29T09:50:37.856Z,100502.97
2023-03-29T09:51:42.647Z,100499.94
2023-03-29T09:52:45.021Z,100504.81
2023-03-29T09:53:47.369Z,100498.03
2023-03-29T09:54:51.999Z,100505.69
2023-03-29T09:55:58.411Z,100497.47
2023-03-29T09:57:01.107Z,100495.59
2023-03-29T09:58:19.712Z,100497.59
2023-03-29T09:59:21.968Z,100497.97
2023-03-29T10:00:24.767Z,100488.88
2023-03-29T10:01:37.467Z,100491.09
2023-03-29T10:02:41.026Z,100497.09
2023-03-29T10:03:50.108Z,100489.22
2023-03-29T10:05:04.060Z,100486.00
2023-03-29T10:06:11.066Z,100487.22
2023-03-29T10:07:20.572Z,100480.69
2023-03-29T10:08:31.497Z,100481.06
2023-03-29T10:09:35.062Z,100474.16
2023-03-29T10:10:39.213Z,100484.34
2023-03-29T10:11:41.615Z,100477.03
2023-03-29T10:12:50.552Z,100474.53
2023-03-29T10:13:57.527Z,100485.56
2023-03-29T10:15:00.882Z,100479.62
2023-03-29T10:16:03.976Z,100486.34
2023-03-29T10:17:14.757Z,100479.00
2023-03-29T10:18:17.043Z,100479.34
2023-03-29T10:19:35.794Z,100478.13
2023-03-29T10:20:40.655Z,100477.78
2023-03-29T10:21:42.641Z,100473.25
2023-03-29T10:22:57.244Z,100468.97
2023-03-29T10:23:59.577Z,100469.22
2023-03-29T10:25:02.135Z,100469.09
2023-03-29T10:26:07.826Z,100469.62
2023-03-29T10:27:11.809Z,100469.25
2023-03-29T10:28:17.673Z,100455.34
2023-03-29T10:29:20.195Z,100468.22
2023-03-29T10:30:25.338Z,100472.69
2023-03-29T10:31:33.064Z,100460.63
2023-03-29T10:32:37.671Z,100462.59
2023-03-29T10:33:39.709Z,100462.09
2023-03-29T10:34:43.140Z,100462.59
2023-03-29T10:35:47.216Z,100465.47
2023-03-29T10:36:58.724Z,100456.63
2023-03-29T10:38:05.324Z,100460.44
2023-03-29T10:39:07.341Z,100458.13
2023-03-29T10:40:43.381Z,100455.03
2023-03-29T10:41:45.969Z,100464.50
2023-03-29T10:42:50.257Z,100456.69
2023-03-29T10:43:52.256Z,100459.06
2023-03-29T10:44:58.801Z,100454.72
2023-03-29T10:46:22.254Z,100451.69
2023-03-29T10:47:24.663Z,100455.13
2023-03-29T10:48:31.189Z,100449.44
2023-03-29T10:49:41.115Z,100453.81
2023-03-29T10:50:48.586Z,100453.00
2023-03-29T10:51:52.550Z,100452.97
2023-03-29T10:52:54.538Z,100444.53
2023-03-29T10:53:59.122Z,100448.78
2023-03-29T10:55:01.069Z,100446.97
2023-03-29T10:56:11.959Z,100447.66
2023-03-29T10:57:22.816Z,100451.22
2023-03-29T10:58:47.804Z,100446.56
2023-03-29T11:00:04.861Z,100431.97
2023-03-29T11:01:17.508Z,100436.16
2023-03-29T11:02:30.376Z,100432.06
2023-03-29T11:04:07.973Z,100432.88
2023-03-29T11:05:13.479Z,100434.13
2023-03-29T11:06:29.787Z,100438.38
2023-03-29T11:07:48.416Z,100434.19
2023-03-29T11:09:05.274Z,100433.59
2023-03-29T11:10:28.467Z,100440.25
2023-03-29T11:11:44.112Z,100427.78
2023-03-29T11:13:10.719Z,100432.81
2023-03-29T11:14:41.388Z,100423.19
2023-03-29T11:15:51.906Z,100415.91
2023-03-29T11:17:02.579Z,100431.13
2023-03-29T11:18:42.884Z,100426.63
2023-03-29T11:19:56.630Z,100420.31
2023-03-29T11:21:08.483Z,100424.41
2023-03-29T11:22:50.364Z,100423.66
2023-03-29T11:24:29.591Z,100418.50
2023-03-29T11:25:45.745Z,100409.47
2023-03-29T11:26:56.918Z,100415.06
2023-03-29T11:28:01.655Z,100403.34
2023-03-29T11:29:29.740Z,100410.56
2023-03-29T11:30:48.280Z,100402.31
2023-03-29T11:32:01.097Z,100400.13
2023-03-29T11:33:03.035Z,100397.41
2023-03-29T11:34:41.852Z,100396.37
2023-03-29T11:35:43.704Z,100400.34
2023-03-29T11:37:01.081Z,100396.34
2023-03-29T11:38:16.116Z,100392.41
2023-03-29T11:39:49.331Z,100394.91
2023-03-29T11:41:09.581Z,100393.16
2023-03-29T11:42:18.300Z,100402.66
2023-03-29T11:43:31.194Z,100400.13
2023-03-29T11:44:36.017Z,100398.19
2023-03-29T11:45:51.367Z,100396.34
2023-03-29T11:47:10.929Z,100401.22
2023-03-29T11:48:31.261Z,100391.97
2023-03-29T11:49:43.078Z,100399.59
2023-03-29T11:50:54.688Z,100387.25
2023-03-29T11:52:08.020Z,100389.94
2023-03-29T11:53:18.018Z,100380.03
2023-03-29T11:54:29.983Z,100383.09
2023-03-29T11:55:36.631Z,100386.75
2023-03-29T11:56:46.792Z,100392.75
2023-03-29T11:57:54.064Z,100390.25
2023-03-29T11:59:05.303Z,100380.00
2023-03-29T12:00:14.638Z,100380.25
2023-03-29T12:01:26.214Z,100378.06
2023-03-29T12:02:50.764Z,100375.56
2023-03-29T12:04:02.541Z,100374.28
2023-03-29T12:05:20.537Z,100376.25
2023-03-29T12:06:48.786Z,100370.06
2023-03-29T12:08:06.303Z,100368.47
2023-03-29T12:09:22.844Z,100371.63
2023-03-29T12:10:33.965Z,100367.22
2023-03-29T12:11:48.021Z,100370.97
2023-03-29T12:12:59.665Z,100369.59
2023-03-29T12:14:09.227Z,100363.31
2023-03-29T12:15:20.334Z,100372.53
2023-03-29T12:16:46.831Z,100365.44
2023-03-29T12:17:59.400Z,100360.44
2023-03-29T12:19:18.832Z,100356.06
2023-03-29T12:20:28.367Z,100357.34
2023-03-29T12:21:33.858Z,100350.56
2023-03-29T12:22:37.802Z,100352.41
2023-03-29T12:23:43.775Z,100346.13
2023-03-29T12:24:51.446Z,100344.84
2023-03-29T12:26:17.160Z,100343.16
2023-03-29T12:27:44.920Z,100348.34
2023-03-29T12:29:08.370Z,100341.00
2023-03-29T12:30:24.206Z,100336.38
2023-03-29T12:31:43.736Z,100333.72
2023-03-29T12:32:54.033Z,100339.09
2023-03-29T12:34:06.742Z,100337.16
2023-03-29T12:35:40.487Z,100340.47
2023-03-29T12:37:24.644Z,100339.44
2023-03-29T12:38:31.261Z,100339.53
2023-03-29T12:39:37.868Z,100332.25
2023-03-29T12:41:04.084Z,100336.66
2023-03-29T12:42:14.451Z,100332.41
2023-03-29T12:43:24.192Z,100324.53
2023-03-29T12:44:27.277Z,100331.50
2023-03-29T12:45:48.164Z,100327.91
2023-03-29T12:47:00.354Z,100322.50
2023-03-29T12:48:02.993Z,100329.97
2023-03-29T12:49:14.467Z,100323.78
2023-03-29T12:50:32.716Z,100328.41